Time;durP1;ratioP1;P1;durP2;ratioP2;P2;SDS_P1;SDS_P2;PMS_P1;PMS_P2;Temp;Humidity;BMP_temperature;BMP_pressure;BME280_temperature;BME280_humidity;BME280_pressure;Samples;Min_cycle;Max_cycle;Signal;HPM_P1;HPM_P2
2023/12/04 00:01:22;;;;;;;30.83;14.37;;;-0.30;95.70;;;;;;5034805;28;20491;-67
2023/12/04 00:03:49;;;;;;;31.97;18.43;;;-0.30;95.60;;;;;;5043194;28;20471;-67
2023/12/04 00:06:16;;;;;;;61.13;27.67;;;-0.20;95.70;;;;;;5037545;28;20486;-67
2023/12/04 00:08:43;;;;;;;62.50;29.80;;;-0.20;95.70;;;;;;5027245;28;20490;-67
2023/12/04 00:11:10;;;;;;;109.47;46.63;;;-0.30;95.50;;;;;;5044584;28;20513;-67
2023/12/04 00:13:37;;;;;;;68.80;32.67;;;-0.40;95.70;;;;;;5020969;28;20544;-67
2023/12/04 00:16:05;;;;;;;37.40;19.30;;;-0.40;95.80;;;;;;5017085;28;20586;-67
2023/12/04 00:18:32;;;;;;;35.27;17.43;;;-0.50;95.40;;;;;;5045650;28;20960;-67
2023/12/04 00:20:59;;;;;;;32.57;18.20;;;-0.40;95.80;;;;;;5047860;28;20542;-67
2023/12/04 00:23:26;;;;;;;34.07;20.37;;;-0.40;95.70;;;;;;5045739;28;20531;-66
2023/12/04 00:25:55;;;;;;;64.57;19.67;;;-0.50;95.30;;;;;;5036330;28;20478;-67
2023/12/04 00:28:22;;;;;;;35.40;18.93;;;-0.50;95.30;;;;;;5038243;28;20515;-67
2023/12/04 00:30:49;;;;;;;51.73;20.17;;;-0.60;95.30;;;;;;5056503;28;20495;-67
2023/12/04 00:33:17;;;;;;;44.10;20.80;;;-0.70;95.20;;;;;;5036496;28;21022;-67
2023/12/04 00:35:44;;;;;;;35.57;19.03;;;-0.70;95.40;;;;;;5029633;28;20791;-67
2023/12/04 00:38:11;;;;;;;35.33;19.87;;;-0.60;95.60;;;;;;5036438;28;20491;-67
2023/12/04 00:40:38;;;;;;;53.93;20.77;;;-0.60;95.40;;;;;;5040234;28;20499;-67
2023/12/04 00:43:04;;;;;;;35.63;18.63;;;-0.60;95.30;;;;;;5055456;28;20985;-67
2023/12/04 00:45:31;;;;;;;36.57;20.80;;;-0.50;95.40;;;;;;5038734;28;20957;-67
2023/12/04 00:47:58;;;;;;;40.43;17.20;;;-0.60;95.30;;;;;;5057755;28;20514;-67
2023/12/04 00:50:26;;;;;;;45.50;19.80;;;-0.60;95.30;;;;;;5047720;28;20889;-67
2023/12/04 00:52:53;;;;;;;31.27;18.33;;;-0.60;95.20;;;;;;5031826;28;20490;-67
2023/12/04 00:55:20;;;;;;;34.87;18.17;;;-0.60;95.10;;;;;;5044074;28;20532;-67
2023/12/04 00:57:47;;;;;;;31.43;16.90;;;-0.70;95.10;;;;;;5054266;28;20480;-67
2023/12/04 01:00:15;;;;;;;55.33;16.63;;;-0.70;95.40;;;;;;5030690;28;20544;-66
2023/12/04 01:02:42;;;;;;;31.03;15.30;;;-0.80;95.20;;;;;;5044879;28;20484;-67
2023/12/04 01:05:09;;;;;;;28.37;16.87;;;-0.80;95.20;;;;;;5046884;28;20501;-67
2023/12/04 01:07:37;;;;;;;38.80;17.40;;;-0.80;95.40;;;;;;5050014;28;20498;-67
2023/12/04 01:10:05;;;;;;;28.47;16.00;;;-0.90;95.00;;;;;;5055395;28;20542;-67
2023/12/04 01:12:32;;;;;;;31.97;17.47;;;-0.80;95.20;;;;;;5036930;28;20533;-67
2023/12/04 01:14:59;;;;;;;27.47;15.20;;;-0.80;95.20;;;;;;5018030;28;20487;-67
2023/12/04 01:17:25;;;;;;;31.90;15.03;;;-0.80;95.30;;;;;;5016707;28;20467;-66
2023/12/04 01:19:52;;;;;;;26.43;14.07;;;-0.80;95.30;;;;;;5034146;28;20854;-67
2023/12/04 01:22:19;;;;;;;45.33;14.93;;;-0.80;95.20;;;;;;5057066;28;20480;-67
2023/12/04 01:24:48;;;;;;;55.43;21.23;;;-0.80;95.20;;;;;;5060124;28;20487;-67
2023/12/04 01:27:14;;;;;;;21.87;12.47;;;-0.80;95.20;;;;;;5049755;28;20512;-67
2023/12/04 01:29:41;;;;;;;22.07;13.57;;;-0.80;95.10;;;;;;5025296;28;20487;-67
2023/12/04 01:32:08;;;;;;;27.50;12.67;;;-0.80;95.10;;;;;;5050053;28;20556;-67
2023/12/04 01:34:35;;;;;;;35.43;16.33;;;-0.90;95.10;;;;;;5048977;28;20545;-67
2023/12/04 01:37:02;;;;;;;35.53;18.10;;;-0.90;94.90;;;;;;5044015;28;20480;-67
2023/12/04 01:39:28;;;;;;;29.53;16.07;;;-0.90;95.00;;;;;;5019018;28;20533;-67
2023/12/04 01:41:57;;;;;;;54.90;16.67;;;-1.00;94.80;;;;;;5027019;28;20594;-67
2023/12/04 01:44:23;;;;;;;30.30;15.60;;;-1.00;95.10;;;;;;5049139;28;20483;-67
2023/12/04 01:46:50;;;;;;;31.80;15.13;;;-1.00;95.20;;;;;;5011450;28;20487;-67
2023/12/04 01:49:18;;;;;;;30.87;16.17;;;-0.90;95.30;;;;;;5039896;28;20573;-67
2023/12/04 01:51:46;;;;;;;25.33;14.37;;;-0.90;95.30;;;;;;4986783;28;20933;-67
2023/12/04 01:54:13;;;;;;;19.97;12.60;;;-1.00;95.20;;;;;;5018929;28;20479;-67
2023/12/04 01:56:40;;;;;;;36.03;13.20;;;-0.90;95.40;;;;;;5038189;28;20491;-68
2023/12/04 01:59:08;;;;;;;30.80;16.27;;;-0.90;95.20;;;;;;5039688;28;20475;-67
2023/12/04 02:01:37;;;;;;;26.17;14.67;;;-0.90;95.30;;;;;;5015036;28;20486;-67
2023/12/04 02:04:05;;;;;;;27.20;13.93;;;-0.90;95.30;;;;;;5054377;28;20958;-67
2023/12/04 02:06:32;;;;;;;25.93;14.63;;;-0.90;95.10;;;;;;5020328;28;20532;-67
2023/12/04 02:08:59;;;;;;;26.37;13.00;;;;;;;;;;5031973;28;21049;-67
2023/12/04 02:11:26;;;;;;;38.60;16.07;;;-0.90;95.20;;;;;;5048492;28;20479;-67
2023/12/04 02:13:53;;;;;;;32.53;14.30;;;-1.00;95.10;;;;;;5047312;28;21094;-67
2023/12/04 02:16:25;;;;;;;35.03;14.73;;;-1.00;95.20;;;;;;5045956;28;20961;-67
2023/12/04 02:18:52;;;;;;;28.57;13.90;;;-1.00;95.10;;;;;;5061335;28;20521;-67
2023/12/04 02:21:19;;;;;;;25.60;13.20;;;-1.00;95.20;;;;;;5036888;28;20919;-67
2023/12/04 02:23:50;;;;;;;29.77;13.70;;;-1.00;95.20;;;;;;5027167;28;20478;-67
2023/12/04 02:26:19;;;;;;;23.70;14.27;;;-1.00;95.40;;;;;;5013603;28;20492;-67
2023/12/04 02:28:55;;;;;;;24.33;13.07;;;-1.00;95.30;;;;;;5026605;28;20471;-67
2023/12/04 02:31:25;;;;;;;27.03;13.30;;;-1.00;95.50;;;;;;5032469;28;20544;-67
2023/12/04 02:33:53;;;;;;;27.43;13.97;;;-1.00;95.50;;;;;;5040429;28;20479;-67
2023/12/04 02:36:21;;;;;;;33.30;14.73;;;-1.00;95.50;;;;;;5022129;28;20474;-67
2023/12/04 02:38:49;;;;;;;40.73;13.33;;;-1.00;95.50;;;;;;5018240;28;20933;-67
2023/12/04 02:41:17;;;;;;;31.07;13.90;;;-1.00;95.60;;;;;;5019298;28;20526;-67
2023/12/04 02:43:44;;;;;;;37.10;11.90;;;-1.10;95.40;;;;;;5019563;28;20471;-67
2023/12/04 02:46:11;;;;;;;20.73;11.37;;;-1.10;95.90;;;;;;5060322;28;20466;-67
2023/12/04 02:48:38;;;;;;;28.90;12.33;;;-1.10;95.90;;;;;;5047200;28;20478;-67
2023/12/04 02:51:05;;;;;;;32.93;14.77;;;-1.10;95.90;;;;;;5051423;28;20491;-67
2023/12/04 02:53:32;;;;;;;37.73;14.67;;;-1.20;95.70;;;;;;5032598;28;20486;-67
2023/12/04 02:56:00;;;;;;;31.80;13.40;;;-1.20;95.80;;;;;;5028652;28;20882;-68
2023/12/04 02:58:27;;;;;;;24.60;13.87;;;-1.10;96.00;;;;;;5046075;28;20479;-68
2023/12/04 03:00:54;;;;;;;21.83;13.23;;;-1.10;96.10;;;;;;5020511;28;20955;-67
2023/12/04 03:03:21;;;;;;;23.67;13.40;;;-1.10;96.10;;;;;;5056709;28;20467;-67
2023/12/04 03:05:48;;;;;;;24.13;12.23;;;-1.10;96.10;;;;;;5043749;28;20536;-67
2023/12/04 03:08:15;;;;;;;27.67;13.83;;;-1.00;96.50;;;;;;5047143;28;20531;-68
2023/12/04 03:10:42;;;;;;;23.87;12.53;;;-1.00;96.50;;;;;;5028549;28;20472;-67
2023/12/04 03:13:10;;;;;;;21.87;13.23;;;-0.80;96.60;;;;;;5032787;28;20536;-67
2023/12/04 03:15:37;;;;;;;26.30;12.63;;;-0.90;96.40;;;;;;5043343;28;20596;-68
2023/12/04 03:18:04;;;;;;;43.97;14.20;;;-0.80;96.40;;;;;;5043462;28;21353;-68
2023/12/04 03:20:32;;;;;;;22.07;13.30;;;-0.70;96.30;;;;;;5017822;28;20811;-67
2023/12/04 03:22:59;;;;;;;22.63;11.70;;;-0.70;96.40;;;;;;5027926;28;20592;-67
2023/12/04 03:25:29;;;;;;;20.33;12.67;;;-0.70;96.40;;;;;;5053453;28;20471;-68
2023/12/04 03:27:56;;;;;;;27.80;13.57;;;-0.70;96.30;;;;;;5045778;28;20475;-68
2023/12/04 03:30:24;;;;;;;21.10;13.60;;;-0.60;96.30;;;;;;5056865;28;20528;-68
2023/12/04 03:32:51;;;;;;;32.50;16.10;;;-0.70;96.50;;;;;;5055021;28;20525;-67
2023/12/04 03:35:18;;;;;;;32.60;15.50;;;-0.70;96.70;;;;;;5056486;28;20486;-67
2023/12/04 03:37:45;;;;;;;37.27;15.30;;;-0.70;96.70;;;;;;5046949;28;20514;-67
2023/12/04 03:40:12;;;;;;;33.30;17.70;;;-0.60;96.70;;;;;;5036533;28;20470;-67
2023/12/04 03:42:40;;;;;;;31.00;13.93;;;-0.60;97.00;;;;;;5052634;28;20559;-67
2023/12/04 03:45:08;;;;;;;32.33;15.77;;;-0.50;97.10;;;;;;5017384;28;20514;-67
2023/12/04 03:47:36;;;;;;;50.63;14.53;;;-0.40;96.90;;;;;;5030413;28;20541;-67
2023/12/04 03:50:03;;;;;;;26.03;12.87;;;-0.40;96.90;;;;;;5048491;28;20528;-67
2023/12/04 03:52:30;;;;;;;53.40;14.70;;;-0.30;96.90;;;;;;5029950;28;20581;-68
2023/12/04 03:54:57;;;;;;;27.80;14.03;;;-0.30;96.80;;;;;;5027033;28;20487;-67
2023/12/04 03:57:24;;;;;;;24.20;15.00;;;-0.30;96.80;;;;;;5038317;28;20477;-67
2023/12/04 03:59:51;;;;;;;30.83;17.80;;;-0.30;96.90;;;;;;5032483;28;20482;-68
2023/12/04 04:02:17;;;;;;;70.20;32.00;;;-0.30;96.80;;;;;;5030095;28;20927;-67
2023/12/04 04:04:46;;;;;;;66.83;34.63;;;-0.30;96.90;;;;;;5032042;28;20564;-67
2023/12/04 04:07:12;;;;;;;45.27;25.40;;;-0.20;97.00;;;;;;5050309;28;20996;-68
2023/12/04 04:09:39;;;;;;;39.07;24.77;;;-0.20;97.00;;;;;;5047367;28;20540;-67
2023/12/04 04:12:06;;;;;;;34.77;18.97;;;;;;;;;;5036843;28;21048;-68
2023/12/04 04:14:33;;;;;;;25.90;14.30;;;-0.10;96.90;;;;;;5025414;28;20491;-67
2023/12/04 04:17:00;;;;;;;24.40;14.47;;;0.00;97.00;;;;;;5028948;28;20486;-67
2023/12/04 04:19:30;;;;;;;24.00;15.53;;;0.00;97.10;;;;;;5025411;28;20491;-67
2023/12/04 04:21:58;;;;;;;21.73;13.80;;;0.00;96.90;;;;;;5032010;28;20498;-68
2023/12/04 04:24:25;;;;;;;27.33;15.57;;;0.00;96.80;;;;;;5045006;28;20487;-68
2023/12/04 04:26:52;;;;;;;39.70;15.20;;;0.10;97.10;;;;;;5056491;28;21058;-68
2023/12/04 04:29:19;;;;;;;25.30;12.70;;;0.10;97.10;;;;;;5032250;28;20476;-68
2023/12/04 04:31:45;;;;;;;32.03;14.97;;;0.10;97.20;;;;;;5049244;28;20983;-68
2023/12/04 04:34:12;;;;;;;27.83;13.10;;;0.10;97.10;;;;;;5044922;28;20563;-67
2023/12/04 04:36:39;;;;;;;23.73;13.90;;;0.10;97.10;;;;;;5041466;28;20484;-68
2023/12/04 04:39:07;;;;;;;21.03;13.70;;;0.20;97.20;;;;;;5048419;28;20556;-67
2023/12/04 04:41:34;;;;;;;33.50;14.30;;;0.20;97.20;;;;;;5034594;28;20549;-68
2023/12/04 04:44:01;;;;;;;23.00;14.00;;;0.30;97.20;;;;;;5037730;28;21081;-68
2023/12/04 04:46:28;;;;;;;20.10;12.90;;;0.30;97.20;;;;;;5022496;28;20537;-68
2023/12/04 04:48:55;;;;;;;35.10;12.80;;;0.40;97.30;;;;;;5000909;28;20475;-68
2023/12/04 04:51:25;;;;;;;24.07;13.27;;;0.40;97.40;;;;;;5053296;28;20836;-67
2023/12/04 04:53:51;;;;;;;20.33;12.07;;;0.40;97.30;;;;;;5057578;28;20487;-67
2023/12/04 04:56:23;;;;;;;29.20;13.70;;;0.50;97.40;;;;;;5018102;28;20707;-67
2023/12/04 04:58:49;;;;;;;27.60;13.77;;;0.50;97.30;;;;;;5026424;28;20953;-67
2023/12/04 05:01:16;;;;;;;41.93;14.67;;;0.60;97.40;;;;;;5023133;28;20965;-67
2023/12/04 05:03:43;;;;;;;21.50;12.83;;;0.70;97.40;;;;;;5044874;28;20589;-68
2023/12/04 05:06:10;;;;;;;30.70;13.10;;;0.70;97.40;;;;;;5058649;28;20532;-68
2023/12/04 05:08:37;;;;;;;38.30;14.33;;;0.70;97.20;;;;;;5039790;28;20887;-68
2023/12/04 05:11:05;;;;;;;22.40;12.37;;;0.70;97.20;;;;;;5005257;28;20562;-68
2023/12/04 05:13:33;;;;;;;24.07;13.83;;;0.80;97.30;;;;;;5057931;28;20512;-68
2023/12/04 05:16:00;;;;;;;32.40;13.43;;;0.80;97.20;;;;;;5040070;28;21008;-68
2023/12/04 05:18:26;;;;;;;32.73;14.47;;;0.80;97.10;;;;;;5032026;28;20471;-68
2023/12/04 05:20:53;;;;;;;23.67;13.07;;;0.80;97.20;;;;;;5039720;28;20487;-68
2023/12/04 05:23:20;;;;;;;38.53;14.43;;;0.80;97.30;;;;;;5041122;28;20479;-68
2023/12/04 05:25:47;;;;;;;25.30;12.90;;;0.80;97.20;;;;;;5041842;28;20471;-68
2023/12/04 05:28:14;;;;;;;26.43;12.47;;;0.80;97.20;;;;;;5014494;28;20548;-68
2023/12/04 05:30:42;;;;;;;20.83;13.20;;;0.80;97.10;;;;;;5044792;28;21235;-68
2023/12/04 05:33:09;;;;;;;25.73;13.23;;;0.80;97.30;;;;;;5040752;28;20475;-68
2023/12/04 05:35:37;;;;;;;31.67;13.20;;;0.90;97.30;;;;;;5014550;28;20487;-68
2023/12/04 05:38:04;;;;;;;25.53;13.23;;;0.70;96.80;;;;;;5058269;28;20475;-68
2023/12/04 05:40:31;;;;;;;34.97;14.37;;;0.70;97.20;;;;;;5058354;28;20578;-67
2023/12/04 05:42:58;;;;;;;24.43;12.70;;;;;;;;;;5014157;28;20479;-68
2023/12/04 05:45:24;;;;;;;22.53;12.83;;;0.70;97.10;;;;;;5045416;28;20930;-68
2023/12/04 05:47:53;;;;;;;27.00;14.47;;;0.80;97.40;;;;;;5058049;28;20474;-68
2023/12/04 05:50:20;;;;;;;32.70;13.77;;;0.80;97.20;;;;;;5020796;28;20485;-68
2023/12/04 05:52:47;;;;;;;30.63;15.10;;;0.80;97.20;;;;;;5051076;28;20482;-68
2023/12/04 05:55:14;;;;;;;28.97;15.07;;;0.80;97.40;;;;;;5044464;28;21015;-68
2023/12/04 05:57:41;;;;;;;20.70;12.23;;;1.00;97.40;;;;;;4867220;28;4360028;-68
2023/12/04 06:00:12;;;;;;;26.50;13.97;;;1.00;97.30;;;;;;5042765;28;20240;-68
2023/12/04 06:02:39;;;;;;;25.87;12.57;;;1.00;97.10;;;;;;5037178;28;20490;-68
2023/12/04 06:05:08;;;;;;;25.80;13.83;;;1.00;97.20;;;;;;5033222;28;20912;-67
2023/12/04 06:07:35;;;;;;;27.43;14.27;;;1.00;97.10;;;;;;5049486;28;20536;-68
2023/12/04 06:10:04;;;;;;;46.60;16.30;;;1.10;97.20;;;;;;5018084;28;20528;-68
2023/12/04 06:12:31;;;;;;;24.07;13.40;;;1.20;97.20;;;;;;5047510;28;20881;-68
2023/12/04 06:14:58;;;;;;;27.97;14.93;;;1.20;97.00;;;;;;5047741;28;20988;-68
2023/12/04 06:17:25;;;;;;;29.83;14.07;;;1.30;97.10;;;;;;5029603;28;20472;-68
2023/12/04 06:19:52;;;;;;;28.33;16.70;;;1.30;97.00;;;;;;5035526;28;20773;-68
2023/12/04 06:22:21;;;;;;;17.50;11.30;;;1.30;96.60;;;;;;5054877;28;20920;-68
2023/12/04 06:24:49;;;;;;;31.93;11.50;;;1.30;96.30;;;;;;5025372;28;20480;-68
2023/12/04 06:27:19;;;;;;;22.63;12.50;;;1.30;96.50;;;;;;5028361;28;20560;-68
2023/12/04 06:29:47;;;;;;;20.13;11.77;;;1.30;96.60;;;;;;4994905;28;20487;-68
2023/12/04 06:32:15;;;;;;;29.97;13.50;;;1.30;96.40;;;;;;5034373;28;20521;-68
2023/12/04 06:34:43;;;;;;;21.43;12.10;;;1.20;96.40;;;;;;5006091;28;20533;-68
2023/12/04 06:37:11;;;;;;;23.57;12.10;;;1.30;96.60;;;;;;5052865;28;20579;-68
2023/12/04 06:39:41;;;;;;;25.47;13.33;;;1.20;96.40;;;;;;5007262;28;20491;-68
2023/12/04 06:42:09;;;;;;;22.27;13.23;;;1.00;96.10;;;;;;5026127;28;20952;-68
2023/12/04 06:44:37;;;;;;;28.43;11.50;;;1.00;96.10;;;;;;5037495;28;21056;-68
2023/12/04 06:47:05;;;;;;;20.17;13.53;;;0.90;96.10;;;;;;5039808;28;20486;-68
2023/12/04 06:49:33;;;;;;;16.83;11.67;;;0.70;96.30;;;;;;5045198;28;20487;-68
2023/12/04 06:52:00;;;;;;;27.00;13.43;;;0.60;96.20;;;;;;5016045;28;20486;-69
2023/12/04 06:54:27;;;;;;;34.90;11.30;;;0.50;96.30;;;;;;5038414;28;20475;-69
2023/12/04 06:56:56;;;;;;;17.07;12.83;;;0.50;96.30;;;;;;5036170;28;21119;-69
2023/12/04 06:59:23;;;;;;;21.77;11.93;;;0.40;96.70;;;;;;5048410;28;20818;-68
2023/12/04 07:01:49;;;;;;;17.67;10.17;;;0.50;96.60;;;;;;5058275;28;20552;-68
2023/12/04 07:04:20;;;;;;;27.00;11.63;;;0.60;96.70;;;;;;5021276;28;20476;-68
2023/12/04 07:06:48;;;;;;;18.23;10.63;;;0.70;96.50;;;;;;5033050;28;20486;-68
2023/12/04 07:09:16;;;;;;;23.43;11.03;;;0.80;96.50;;;;;;5037134;28;20483;-68
2023/12/04 07:11:43;;;;;;;20.00;10.77;;;0.90;96.30;;;;;;5034200;28;20487;-68
2023/12/04 07:14:12;;;;;;;33.27;12.23;;;1.00;96.00;;;;;;5004575;28;20517;-68
2023/12/04 07:16:41;;;;;;;17.33;9.43;;;1.00;96.00;;;;;;5005883;28;20488;-68
2023/12/04 07:19:08;;;;;;;21.27;11.73;;;1.00;96.10;;;;;;5005877;28;20576;-68
2023/12/04 07:21:35;;;;;;;18.67;11.53;;;0.90;95.80;;;;;;5021022;28;20506;-68
2023/12/04 07:24:01;;;;;;;16.10;9.73;;;1.00;95.80;;;;;;5030697;28;20476;-68
2023/12/04 07:26:28;;;;;;;15.17;8.87;;;1.00;95.90;;;;;;5035362;28;20540;-68
2023/12/04 07:28:55;;;;;;;30.43;12.60;;;1.00;95.80;;;;;;5021739;28;20502;-68
2023/12/04 07:31:23;;;;;;;19.60;10.97;;;1.20;96.10;;;;;;5012005;28;21161;-68
2023/12/04 07:33:50;;;;;;;22.17;11.53;;;1.20;95.50;;;;;;4999062;28;20562;-68
2023/12/04 07:36:17;;;;;;;20.97;10.77;;;1.40;95.90;;;;;;5039506;28;20892;-68
2023/12/04 07:38:44;;;;;;;19.10;11.97;;;1.40;95.60;;;;;;5034694;28;20467;-68
2023/12/04 07:41:11;;;;;;;20.37;11.53;;;1.50;95.20;;;;;;5010808;28;20532;-68
2023/12/04 07:43:38;;;;;;;17.27;10.07;;;1.50;95.70;;;;;;5041130;28;20905;-68
2023/12/04 07:46:05;;;;;;;23.30;11.47;;;1.60;95.50;;;;;;4999776;28;20865;-68
2023/12/04 07:48:33;;;;;;;17.90;11.50;;;1.50;95.10;;;;;;5030605;28;20514;-68
2023/12/04 07:51:00;;;;;;;19.90;11.67;;;1.40;94.80;;;;;;5041932;28;20491;-68
2023/12/04 07:53:27;;;;;;;41.07;11.47;;;1.40;95.30;;;;;;5050111;28;20483;-68
2023/12/04 07:55:53;;;;;;;20.73;11.37;;;1.40;95.30;;;;;;5038190;28;20562;-68
2023/12/04 07:58:21;;;;;;;19.93;11.80;;;1.40;95.10;;;;;;5038432;28;20966;-68
2023/12/04 08:00:50;;;;;;;36.13;12.63;;;1.40;95.30;;;;;;5053396;28;20826;-68
2023/12/04 08:03:16;;;;;;;18.10;11.17;;;1.60;95.80;;;;;;5053625;28;21119;-68
2023/12/04 08:05:45;;;;;;;21.80;12.10;;;1.60;95.70;;;;;;5039514;28;20533;-68
2023/12/04 08:08:11;;;;;;;21.33;11.33;;;1.80;95.90;;;;;;5043401;28;20976;-68
2023/12/04 08:10:38;;;;;;;22.77;11.90;;;1.90;96.00;;;;;;5038410;28;20487;-68
2023/12/04 08:13:05;;;;;;;15.13;11.30;;;2.10;95.80;;;;;;5044026;28;20524;-68
2023/12/04 08:15:32;;;;;;;29.13;13.87;;;2.20;95.60;;;;;;5015731;28;20910;-68
2023/12/04 08:18:00;;;;;;;24.50;13.03;;;2.20;95.30;;;;;;5025456;28;20507;-68
2023/12/04 08:20:28;;;;;;;30.43;12.57;;;2.30;95.40;;;;;;5045887;28;20513;-68
2023/12/04 08:22:56;;;;;;;23.03;12.37;;;2.30;95.70;;;;;;5026021;28;20477;-68
2023/12/04 08:25:23;;;;;;;17.87;11.87;;;2.30;95.50;;;;;;5010992;28;20535;-68
2023/12/04 08:27:51;;;;;;;31.63;12.80;;;2.20;94.50;;;;;;5027074;28;20502;-68
2023/12/04 08:30:17;;;;;;;19.97;11.47;;;2.30;95.30;;;;;;4966033;28;20476;-68
2023/12/04 08:32:45;;;;;;;66.93;29.90;;;2.30;95.30;;;;;;5018363;28;20857;-68
2023/12/04 08:35:11;;;;;;;66.23;24.33;;;2.30;94.80;;;;;;5033142;28;20547;-68
2023/12/04 08:37:40;;;;;;;19.60;12.57;;;;;;;;;;5039950;28;20471;-68
2023/12/04 08:40:10;;;;;;;24.87;12.80;;;2.20;94.60;;;;;;5055408;28;20624;-68
2023/12/04 08:42:36;;;;;;;21.57;12.80;;;2.00;94.70;;;;;;5050570;28;20479;-68
2023/12/04 08:45:05;;;;;;;18.30;12.70;;;1.90;95.30;;;;;;5022978;28;20479;-68
2023/12/04 08:47:33;;;;;;;19.30;11.97;;;1.90;96.00;;;;;;5026796;28;20477;-68
2023/12/04 08:50:01;;;;;;;19.03;12.30;;;1.80;96.10;;;;;;5047377;28;20796;-68
2023/12/04 08:52:28;;;;;;;27.50;15.23;;;1.70;96.40;;;;;;5040160;28;20478;-68
2023/12/04 08:54:55;;;;;;;21.23;12.67;;;1.60;96.60;;;;;;5030798;28;20839;-68
2023/12/04 08:57:23;;;;;;;24.73;12.73;;;1.60;97.10;;;;;;5024136;28;21209;-68
2023/12/04 08:59:50;;;;;;;22.30;12.20;;;;;;;;;;5017189;28;20467;-68
2023/12/04 09:02:17;;;;;;;44.27;16.50;;;1.50;97.10;;;;;;5017325;28;20495;-68
2023/12/04 09:04:44;;;;;;;28.60;14.63;;;1.60;97.50;;;;;;5037117;28;20526;-68
2023/12/04 09:07:11;;;;;;;21.33;14.13;;;1.60;97.90;;;;;;5041125;28;20478;-68
2023/12/04 09:09:38;;;;;;;22.27;11.83;;;1.70;98.20;;;;;;5043994;28;20487;-68
2023/12/04 09:12:05;;;;;;;24.30;13.47;;;1.90;98.10;;;;;;5053378;28;20536;-67
2023/12/04 09:14:33;;;;;;;27.93;15.13;;;2.00;98.10;;;;;;5041141;28;20820;-66
2023/12/04 09:17:00;;;;;;;29.53;12.73;;;2.00;97.80;;;;;;5019161;28;20490;-67
2023/12/04 09:19:27;;;;;;;24.23;13.47;;;2.10;98.00;;;;;;5023472;28;20555;-67
2023/12/04 09:21:54;;;;;;;25.40;15.90;;;2.10;98.30;;;;;;5020481;28;21396;-66
2023/12/04 09:24:20;;;;;;;31.30;14.90;;;2.00;98.20;;;;;;5054934;28;20544;-67
2023/12/04 09:26:47;;;;;;;22.43;12.00;;;1.90;98.40;;;;;;5050100;28;20480;-66
2023/12/04 09:29:15;;;;;;;20.70;11.50;;;1.90;98.70;;;;;;5043649;28;21028;-67
2023/12/04 09:31:43;;;;;;;28.63;12.60;;;2.00;98.90;;;;;;5019797;28;20483;-67
2023/12/04 09:34:10;;;;;;;24.70;14.37;;;2.10;99.00;;;;;;5040299;28;20480;-66
2023/12/04 09:36:37;;;;;;;47.77;16.03;;;2.20;99.00;;;;;;5024019;28;20544;-67
2023/12/04 09:39:05;;;;;;;13.83;9.13;;;2.30;98.90;;;;;;5051568;28;20507;-67
2023/12/04 09:41:32;;;;;;;17.20;7.93;;;2.20;98.30;;;;;;5008757;28;20478;-67
2023/12/04 09:44:00;;;;;;;40.77;12.57;;;2.20;98.80;;;;;;5040122;28;20521;-67
2023/12/04 09:46:28;;;;;;;23.93;10.30;;;2.10;98.60;;;;;;5032833;28;21337;-67
2023/12/04 09:48:57;;;;;;;19.83;11.47;;;2.10;98.50;;;;;;5034601;28;20506;-67
2023/12/04 09:51:25;;;;;;;20.87;11.50;;;2.00;98.80;;;;;;5019934;28;20462;-67
2023/12/04 09:53:53;;;;;;;17.10;9.53;;;2.00;99.10;;;;;;5043775;28;20819;-67
2023/12/04 09:56:21;;;;;;;22.93;11.23;;;2.20;99.10;;;;;;5017202;28;20528;-67
2023/12/04 09:58:53;;;;;;;19.93;11.93;;;2.30;99.00;;;;;;5043222;28;20550;-67
2023/12/04 10:01:21;;;;;;;21.97;12.30;;;2.40;98.60;;;;;;5040210;28;20483;-67
2023/12/04 10:03:48;;;;;;;14.87;9.33;;;2.30;98.30;;;;;;5035868;28;20588;-68
2023/12/04 10:06:18;;;;;;;26.90;11.33;;;2.30;98.50;;;;;;5050262;28;20471;-67
2023/12/04 10:08:45;;;;;;;19.30;11.43;;;2.30;98.70;;;;;;5034937;28;20530;-67
2023/12/04 10:11:14;;;;;;;27.07;10.80;;;2.30;98.50;;;;;;5042059;28;20521;-68
2023/12/04 10:13:42;;;;;;;18.63;10.90;;;2.20;98.50;;;;;;5047102;28;20831;-68
2023/12/04 10:16:09;;;;;;;26.03;11.77;;;2.00;98.60;;;;;;5015437;28;20481;-68
2023/12/04 10:18:36;;;;;;;23.53;11.93;;;1.90;99.00;;;;;;5037481;28;20471;-67
2023/12/04 10:21:04;;;;;;;38.90;12.67;;;1.70;99.10;;;;;;5045017;28;20547;-68
2023/12/04 10:23:40;;;;;;;19.13;12.87;;;1.60;99.40;;;;;;5042463;28;20549;-69
2023/12/04 10:26:08;;;;;;;26.23;13.87;;;1.30;99.80;;;;;;5021867;28;20484;-70
2023/12/04 10:28:35;;;;;;;22.90;15.17;;;1.30;99.90;;;;;;5013082;28;20506;-70
2023/12/04 10:31:06;;;;;;;18.77;11.63;;;1.20;99.90;;;;;;4996763;28;20486;-70
2023/12/04 10:33:33;;;;;;;21.57;14.63;;;1.20;99.90;;;;;;5037182;28;20566;-68
2023/12/04 10:36:02;;;;;;;21.47;11.90;;;1.20;99.90;;;;;;5052198;28;20524;-67
2023/12/04 10:38:29;;;;;;;33.50;10.10;;;1.20;99.90;;;;;;5054356;28;20819;-69
2023/12/04 10:41:12;;;;;;;19.47;10.27;;;1.20;99.90;;;;;;5045519;28;20528;-69
2023/12/04 10:43:48;;;;;;;19.17;9.90;;;1.30;99.90;;;;;;5024686;28;20544;-68
2023/12/04 10:46:16;;;;;;;15.17;10.80;;;1.20;99.90;;;;;;5041476;28;20475;-68
2023/12/04 10:48:45;;;;;;;19.90;10.43;;;1.30;99.90;;;;;;5036158;28;21012;-69
2023/12/04 10:51:13;;;;;;;10.77;7.17;;;1.10;99.90;;;;;;5016661;28;20490;-68
2023/12/04 10:53:42;;;;;;;13.63;5.43;;;1.10;99.90;;;;;;5036806;28;20483;-67
2023/12/04 10:56:17;;;;;;;11.10;6.87;;;1.20;99.90;;;;;;5047430;28;20835;-68
2023/12/04 10:58:46;;;;;;;24.60;9.50;;;1.30;99.90;;;;;;5045022;28;20502;-67
2023/12/04 11:01:15;;;;;;;15.10;9.97;;;1.30;99.90;;;;;;5051011;28;20471;-68
2023/12/04 11:03:45;;;;;;;16.60;10.80;;;1.40;99.90;;;;;;5036313;28;20490;-67
2023/12/04 11:06:13;;;;;;;31.67;12.80;;;1.10;99.90;;;;;;5048977;28;20491;-70
2023/12/04 11:08:43;;;;;;;19.30;11.90;;;1.10;99.90;;;;;;5032979;28;21072;-71
2023/12/04 11:11:16;;;;;;;13.57;8.37;;;1.10;99.90;;;;;;5046961;28;20532;-68
2023/12/04 11:13:47;;;;;;;15.83;11.23;;;1.30;99.90;;;;;;5022049;28;20484;-69
2023/12/04 11:16:23;;;;;;;21.97;13.87;;;1.20;99.90;;;;;;5016495;28;20913;-70
2023/12/04 11:18:53;;;;;;;9.47;4.50;;;;;;;;;;4973934;28;20561;-68
2023/12/04 11:21:21;;;;;;;20.10;7.20;;;1.50;99.90;;;;;;5036565;28;21233;-69
2023/12/04 11:23:49;;;;;;;14.80;8.47;;;1.60;99.90;;;;;;5036983;28;20489;-69
2023/12/04 11:26:18;;;;;;;13.70;9.50;;;1.70;99.90;;;;;;5053703;28;20882;-67
2023/12/04 11:28:45;;;;;;;14.73;8.83;;;1.60;99.90;;;;;;5017532;28;20800;-69
2023/12/04 11:31:12;;;;;;;19.10;12.30;;;1.60;99.90;;;;;;5025168;28;20513;-70
2023/12/04 11:33:39;;;;;;;52.70;12.67;;;1.50;99.90;;;;;;5050890;28;20475;-68
2023/12/04 11:36:10;;;;;;;12.77;7.97;;;1.50;99.90;;;;;;5038248;28;20520;-69
2023/12/04 11:38:39;;;;;;;15.40;9.00;;;1.70;99.90;;;;;;5052544;28;20923;-69
2023/12/04 11:41:18;;;;;;;18.73;9.33;;;1.70;99.90;;;;;;5024678;28;20486;-71
2023/12/04 11:43:47;;;;;;;20.93;10.13;;;1.60;99.90;;;;;;5048076;28;20487;-71
2023/12/04 11:46:20;;;;;;;16.73;8.00;;;1.40;99.90;;;;;;5026166;28;20830;-70
2023/12/04 11:48:49;;;;;;;23.50;10.73;;;1.60;99.90;;;;;;5010665;28;20482;-71
2023/12/04 11:51:37;;;;;;;11.50;7.53;;;1.70;99.90;;;;;;5034354;28;20552;-69
2023/12/04 11:54:05;;;;;;;16.67;7.57;;;;;;;;;;5041775;28;20540;-70
2023/12/04 11:56:33;;;;;;;7.83;5.20;;;1.80;99.90;;;;;;5012961;28;20526;-69
2023/12/04 11:59:04;;;;;;;38.87;9.50;;;2.00;99.90;;;;;;5016949;28;20536;-70
2023/12/04 12:01:34;;;;;;;18.50;7.80;;;2.00;99.90;;;;;;5055218;28;20474;-70
2023/12/04 12:04:02;;;;;;;11.90;6.70;;;2.10;99.90;;;;;;5009672;28;20547;-70
2023/12/04 12:06:28;;;;;;;14.20;8.70;;;2.10;99.90;;;;;;5035829;28;20486;-69
2023/12/04 12:08:57;;;;;;;29.43;10.73;;;2.10;99.90;;;;;;5037163;28;20537;-70
2023/12/04 12:11:24;;;;;;;10.83;6.77;;;2.10;99.90;;;;;;5041728;28;20492;-70
2023/12/04 12:13:54;;;;;;;18.13;10.73;;;2.10;99.90;;;;;;5043327;28;20490;-71
2023/12/04 12:16:21;;;;;;;18.30;6.60;;;2.20;99.90;;;;;;5043263;28;20482;-70
2023/12/04 12:18:48;;;;;;;13.20;8.50;;;2.10;99.90;;;;;;5056807;28;20466;-71
2023/12/04 12:21:15;;;;;;;15.13;11.00;;;2.00;99.90;;;;;;5026384;28;20531;-73
2023/12/04 12:23:43;;;;;;;13.30;7.83;;;2.10;99.90;;;;;;5013490;28;20581;-71
2023/12/04 12:26:10;;;;;;;12.10;8.30;;;2.00;99.90;;;;;;5019437;28;20569;-70
2023/12/04 12:28:37;;;;;;;37.37;8.73;;;2.10;99.90;;;;;;5036978;28;20475;-69
2023/12/04 12:31:06;;;;;;;15.20;8.97;;;2.10;99.90;;;;;;5021702;28;20483;-71
2023/12/04 12:33:33;;;;;;;24.20;11.60;;;2.20;99.90;;;;;;5003632;28;20575;-72
2023/12/04 12:36:00;;;;;;;20.33;11.83;;;2.20;99.90;;;;;;5012618;28;20483;-70
2023/12/04 12:38:27;;;;;;;19.10;11.27;;;2.10;99.90;;;;;;5051957;28;20540;-72